createdAt,value
2023-04-20T00:01:23.264Z,96263.91
2023-04-20T00:03:51.897Z,96256.97
2023-04-20T00:06:22.000Z,96257.81
2023-04-20T00:08:49.980Z,96261.25
2023-04-20T00:11:17.704Z,96257.56
2023-04-20T00:13:46.872Z,96257.75
2023-04-20T00:16:14.816Z,96253.72
2023-04-20T00:18:42.913Z,96250.44
2023-04-20T00:21:10.610Z,96239.41
2023-04-20T00:23:38.310Z,96245.56
2023-04-20T00:26:06.390Z,96236.78
2023-04-20T00:28:34.189Z,96223.13
2023-04-20T00:31:03.353Z,96226.75
2023-04-20T00:33:31.111Z,96211.66
2023-04-20T00:35:58.874Z,96219.63
2023-04-20T00:38:27.784Z,96219.81
2023-04-20T00:40:56.297Z,96214.31
2023-04-20T00:43:24.262Z,96184.75
2023-04-20T00:45:52.627Z,96193.31
2023-04-20T00:48:23.508Z,96196.16
2023-04-20T00:50:52.185Z,96194.72
2023-04-20T00:53:20.415Z,96192.50
2023-04-20T00:55:48.666Z,96179.47
2023-04-20T00:58:16.418Z,96177.81
2023-04-20T01:00:44.743Z,96164.34
2023-04-20T01:03:12.709Z,96175.19
2023-04-20T01:05:42.225Z,96171.72
2023-04-20T01:08:09.958Z,96168.03
2023-04-20T01:10:37.643Z,96166.59
2023-04-20T01:13:05.376Z,96160.28
2023-04-20T01:15:34.151Z,96156.19
2023-04-20T01:18:02.885Z,96155.56
2023-04-20T01:20:30.651Z,96143.09
2023-04-20T01:22:59.744Z,96142.50
2023-04-20T01:25:27.551Z,96138.81
2023-04-20T01:27:55.366Z,96133.94
2023-04-20T01:30:23.193Z,96132.66
2023-04-20T01:32:51.180Z,96135.13
2023-04-20T01:35:18.996Z,96119.28
2023-04-20T01:37:46.803Z,96126.00
2023-04-20T01:40:16.411Z,96100.25
2023-04-20T01:42:44.197Z,96107.16
2023-04-20T01:45:12.416Z,96093.31
2023-04-20T01:47:40.270Z,96104.59
2023-04-20T01:50:08.790Z,96109.63
2023-04-20T01:52:36.660Z,96105.34
2023-04-20T01:55:04.577Z,96091.69
2023-04-20T01:57:33.764Z,96098.97
2023-04-20T02:00:01.476Z,96113.72
2023-04-20T02:02:29.530Z,96099.59
2023-04-20T02:04:57.448Z,96090.44
2023-04-20T02:07:25.500Z,96086.88
2023-04-20T02:09:53.644Z,96083.63
2023-04-20T02:12:21.358Z,96078.25
2023-04-20T02:14:50.496Z,96083.94
2023-04-20T02:17:18.461Z,96079.19
2023-04-20T02:19:46.909Z,96076.59
2023-04-20T02:22:14.907Z,96071.72
2023-04-20T02:24:43.742Z,96068.25
2023-04-20T02:27:11.641Z,96044.81
2023-04-20T02:29:39.479Z,96066.94
2023-04-20T02:32:08.878Z,96061.03
2023-04-20T02:34:36.714Z,96054.78
2023-04-20T02:37:04.418Z,96048.44
2023-04-20T02:39:32.141Z,96045.38
2023-04-20T02:42:00.153Z,96046.72
2023-04-20T02:44:28.006Z,96038.19
2023-04-20T02:46:55.790Z,96036.28
2023-04-20T02:49:24.926Z,96026.28
2023-04-20T02:51:52.733Z,96018.16
2023-04-20T02:54:20.450Z,96018.53
2023-04-20T02:56:48.229Z,96033.13
2023-04-20T02:59:16.134Z,96032.09
2023-04-20T03:01:44.337Z,96026.72
2023-04-20T03:04:12.280Z,96029.53
2023-04-20T03:06:43.004Z,96018.56
2023-04-20T03:09:10.734Z,96023.97
2023-04-20T03:11:38.526Z,96024.34
2023-04-20T03:14:06.310Z,96021.13
2023-04-20T03:16:34.158Z,96011.31
2023-04-20T03:19:01.955Z,96015.16
2023-04-20T03:21:29.675Z,96020.88
2023-04-20T03:23:58.779Z,96022.44
2023-04-20T03:26:26.848Z,96027.16
2023-04-20T03:28:54.813Z,96021.00
2023-04-20T03:31:22.613Z,96018.50
2023-04-20T03:33:50.458Z,96009.28
2023-04-20T03:36:18.313Z,96007.59
2023-04-20T03:38:46.097Z,96007.09
2023-04-20T03:41:15.225Z,96002.41
2023-04-20T03:43:43.149Z,96005.81
2023-04-20T03:46:10.917Z,96011.09
2023-04-20T03:48:38.710Z,96010.38
2023-04-20T03:51:06.619Z,96008.75
2023-04-20T03:53:34.535Z,96004.97
2023-04-20T03:56:02.481Z,96007.44
2023-04-20T03:58:31.656Z,95994.63
2023-04-20T04:01:04.538Z,96002.19
2023-04-20T04:03:32.667Z,96003.97
2023-04-20T04:06:00.683Z,96010.09
2023-04-20T04:08:28.542Z,95994.81
2023-04-20T04:10:56.338Z,96001.63
2023-04-20T04:13:24.325Z,95984.78
2023-04-20T04:15:53.532Z,95994.88
2023-04-20T04:18:22.178Z,95995.56
2023-04-20T04:20:50.081Z,95995.16
2023-04-20T04:23:17.843Z,95996.00
2023-04-20T04:25:46.129Z,95975.00
2023-04-20T04:28:14.767Z,96003.69
2023-04-20T04:30:42.599Z,95979.94
2023-04-20T04:33:14.710Z,95984.78
2023-04-20T04:35:43.993Z,95993.94
2023-04-20T04:38:12.893Z,96004.72
2023-04-20T04:40:41.680Z,96003.44
2023-04-20T04:43:10.197Z,95994.44
2023-04-20T04:45:39.603Z,95963.19
2023-04-20T04:48:09.048Z,95984.53
2023-04-20T04:50:38.378Z,95978.63
2023-04-20T04:53:06.114Z,95978.88
2023-04-20T04:55:34.123Z,95986.84
2023-04-20T04:58:02.657Z,95983.50
2023-04-20T05:00:31.339Z,95981.72
2023-04-20T05:02:59.244Z,95980.69
2023-04-20T05:05:27.343Z,95971.47
2023-04-20T05:07:56.726Z,95948.09
2023-04-20T05:10:24.433Z,95974.09
2023-04-20T05:12:52.395Z,95951.66
2023-04-20T05:15:20.426Z,95952.94
2023-04-20T05:17:49.696Z,95964.03
2023-04-20T05:20:17.927Z,95972.88
2023-04-20T05:22:45.775Z,95966.00
2023-04-20T05:25:15.386Z,95977.28
2023-04-20T05:27:43.128Z,95963.63
2023-04-20T05:30:20.390Z,95977.84
2023-04-20T05:32:51.529Z,95968.00
2023-04-20T05:35:21.392Z,95978.78
2023-04-20T05:37:49.438Z,95978.94
2023-04-20T05:40:18.616Z,95976.81
2023-04-20T05:42:46.355Z,95967.25
2023-04-20T05:45:14.135Z,95985.41
2023-04-20T05:47:41.943Z,95984.41
2023-04-20T05:50:10.929Z,95988.25
2023-04-20T05:52:38.673Z,95980.47
2023-04-20T05:55:07.306Z,95964.59
2023-04-20T05:57:42.770Z,95976.69
2023-04-20T06:00:12.307Z,95976.97
2023-04-20T06:02:40.407Z,95984.81
2023-04-20T06:05:10.465Z,95984.09
2023-04-20T06:07:38.893Z,95969.25
2023-04-20T06:10:08.390Z,95960.50
2023-04-20T06:12:38.098Z,95962.88
2023-04-20T06:15:08.528Z,95985.09
2023-04-20T06:17:37.797Z,95972.69
2023-04-20T06:20:06.878Z,95977.72
2023-04-20T06:22:34.756Z,95956.53
2023-04-20T06:25:02.920Z,95971.53
2023-04-20T06:27:31.176Z,95997.41
2023-04-20T06:30:00.814Z,95994.38
2023-04-20T06:32:28.693Z,95987.25
2023-04-20T06:34:56.477Z,95991.69
2023-04-20T06:37:24.190Z,95963.81
2023-04-20T06:39:55.017Z,95986.22
2023-04-20T06:42:22.858Z,95979.44
2023-04-20T06:44:50.877Z,95980.75
2023-04-20T06:47:20.105Z,95975.06
2023-04-20T06:49:47.937Z,95903.09
2023-04-20T06:52:15.802Z,95968.75
2023-04-20T06:54:43.608Z,95982.38
2023-04-20T06:57:11.399Z,95985.16
2023-04-20T06:59:39.130Z,95970.06
2023-04-20T07:02:06.973Z,95953.41
2023-04-20T07:04:36.403Z,95959.19
2023-04-20T07:07:04.209Z,95968.88
2023-04-20T07:09:32.463Z,95973.66
2023-04-20T07:12:00.996Z,95980.69
2023-04-20T07:14:28.696Z,95975.88
2023-04-20T07:16:56.586Z,95955.59
2023-04-20T07:19:24.332Z,95956.06
2023-04-20T07:21:53.514Z,95963.75
2023-04-20T07:24:21.227Z,95977.63
2023-04-20T07:26:49.057Z,95983.31
2023-04-20T07:29:17.137Z,95978.53
2023-04-20T07:31:45.187Z,95958.00
2023-04-20T07:34:13.036Z,95971.78
2023-04-20T07:36:40.797Z,95975.56
2023-04-20T07:39:09.996Z,95975.50
2023-04-20T07:41:38.406Z,95976.19
2023-04-20T07:44:06.313Z,95967.22
2023-04-20T07:46:34.108Z,95968.06
2023-04-20T07:49:01.890Z,95977.25
2023-04-20T07:51:30.376Z,95989.88
2023-04-20T07:53:58.255Z,95981.19
2023-04-20T07:56:27.482Z,95984.97
2023-04-20T07:58:55.224Z,95971.34
2023-04-20T08:01:25.841Z,95960.38
2023-04-20T08:03:54.970Z,95980.03
2023-04-20T08:06:23.013Z,95981.31
2023-04-20T08:08:50.795Z,95988.97
2023-04-20T08:11:18.552Z,95988.16
2023-04-20T08:13:47.677Z,95981.69
2023-04-20T08:16:15.586Z,95974.09
2023-04-20T08:18:43.503Z,95956.66
2023-04-20T08:21:11.312Z,95977.88
2023-04-20T08:23:39.294Z,95969.41
2023-04-20T08:26:07.300Z,95967.91
2023-04-20T08:28:35.184Z,95949.91
2023-04-20T08:31:04.408Z,95944.72
2023-04-20T08:33:32.267Z,95948.88
2023-04-20T08:36:00.121Z,95948.78
2023-04-20T08:38:33.832Z,95963.94
2023-04-20T08:41:02.565Z,95952.31
2023-04-20T08:43:30.390Z,95954.75
2023-04-20T08:45:59.778Z,95943.69
2023-04-20T08:48:35.206Z,95939.19
2023-04-20T08:51:03.367Z,95936.75
2023-04-20T08:53:31.590Z,95936.69
2023-04-20T08:55:59.557Z,95934.81
2023-04-20T08:58:31.726Z,95933.75
2023-04-20T09:01:00.680Z,95931.03
2023-04-20T09:03:37.814Z,95933.53
2023-04-20T09:06:07.037Z,95928.19
2023-04-20T09:08:38.799Z,95913.28
2023-04-20T09:11:06.839Z,95916.63
2023-04-20T09:13:35.583Z,95917.31
2023-04-20T09:16:12.792Z,95908.22
2023-04-20T09:18:52.321Z,95905.59
2023-04-20T09:21:20.252Z,95905.63
2023-04-20T09:23:57.678Z,95897.06
2023-04-20T09:26:25.555Z,95905.03
2023-04-20T09:28:53.744Z,95913.88
2023-04-20T09:31:22.224Z,95893.00
2023-04-20T09:34:02.289Z,95899.34
2023-04-20T09:36:38.273Z,95901.38
2023-04-20T09:39:08.681Z,95890.38
2023-04-20T09:41:37.367Z,95904.75
2023-04-20T09:44:06.013Z,95871.66
2023-04-20T09:46:35.720Z,95896.72
2023-04-20T09:49:06.474Z,95900.41
2023-04-20T09:51:36.758Z,95896.22
2023-04-20T09:54:06.152Z,95894.00
2023-04-20T09:56:35.862Z,95906.63
2023-04-20T09:59:04.798Z,95900.44
2023-04-20T10:01:34.922Z,95908.66
2023-04-20T10:04:08.275Z,95914.97
2023-04-20T10:06:37.441Z,95914.63
2023-04-20T10:09:07.815Z,95910.91
2023-04-20T10:11:49.103Z,95905.38
2023-04-20T10:14:23.124Z,95897.41
2023-04-20T10:17:00.913Z,95909.75
2023-04-20T10:19:40.016Z,95899.50
2023-04-20T10:22:09.030Z,95893.63
2023-04-20T10:24:38.417Z,95878.59
2023-04-20T10:27:17.853Z,95882.81
2023-04-20T10:29:45.912Z,95897.69
2023-04-20T10:32:23.000Z,95882.44
2023-04-20T10:35:02.554Z,95880.59
2023-04-20T10:37:32.030Z,95897.03
2023-04-20T10:40:00.286Z,95896.19
2023-04-20T10:42:29.662Z,95895.00
2023-04-20T10:44:57.574Z,95892.66
2023-04-20T10:47:29.995Z,95880.16
2023-04-20T10:50:09.299Z,95889.63
2023-04-20T10:52:39.577Z,95873.34
2023-04-20T10:55:18.813Z,95873.41
2023-04-20T10:57:46.775Z,95886.78
2023-04-20T11:00:19.575Z,95882.31
2023-04-20T11:02:49.801Z,95887.34
2023-04-20T11:05:21.393Z,95885.03
2023-04-20T11:07:53.561Z,95877.47
2023-04-20T11:10:21.276Z,95870.69
2023-04-20T11:12:49.145Z,95867.75
2023-04-20T11:15:16.962Z,95876.28
2023-04-20T11:17:46.033Z,95872.66
2023-04-20T11:20:17.017Z,95873.63
2023-04-20T11:22:57.546Z,95876.03
2023-04-20T11:25:25.662Z,95867.09
2023-04-20T11:27:53.372Z,95858.88
2023-04-20T11:30:21.161Z,95863.28
2023-04-20T11:32:55.623Z,95866.16
2023-04-20T11:35:23.888Z,95866.50
2023-04-20T11:37:53.818Z,95864.47
2023-04-20T11:40:21.583Z,95865.41
2023-04-20T11:42:49.509Z,95871.03
2023-04-20T11:45:17.897Z,95866.59
2023-04-20T11:47:46.025Z,95855.13
2023-04-20T11:50:14.432Z,95870.28
2023-04-20T11:52:42.282Z,95863.41
2023-04-20T11:55:11.654Z,95871.47
2023-04-20T11:57:39.450Z,95869.13
2023-04-20T12:00:08.975Z,95871.78
2023-04-20T12:02:36.973Z,95873.47
2023-04-20T12:05:05.520Z,95877.59
2023-04-20T12:07:33.326Z,95884.06
2023-04-20T12:10:01.347Z,95872.28
2023-04-20T12:12:30.996Z,95872.72
2023-04-20T12:14:58.916Z,95874.22
2023-04-20T12:17:27.180Z,95875.31
2023-04-20T12:19:57.950Z,95880.19
2023-04-20T12:22:25.797Z,95883.91
2023-04-20T12:24:53.642Z,95879.97
2023-04-20T12:27:21.497Z,95878.22
2023-04-20T12:29:50.634Z,95874.63
2023-04-20T12:32:18.502Z,95862.06
2023-04-20T12:34:46.221Z,95875.28
2023-04-20T12:37:14.800Z,95871.22
2023-04-20T12:39:42.630Z,95871.72
2023-04-20T12:42:10.461Z,95875.53
2023-04-20T12:44:38.288Z,95874.69
2023-04-20T12:47:07.427Z,95883.56
2023-04-20T12:49:35.235Z,95879.34
2023-04-20T12:52:03.063Z,95872.13
2023-04-20T12:54:30.864Z,95869.63
2023-04-20T12:56:58.578Z,95870.88
2023-04-20T12:59:26.279Z,95869.13
2023-04-20T13:01:54.094Z,95872.72
2023-04-20T13:04:23.728Z,95874.31
2023-04-20T13:06:51.872Z,95879.25
2023-04-20T13:09:19.624Z,95886.78
2023-04-20T13:11:47.676Z,95897.56
2023-04-20T13:14:15.803Z,95903.16
2023-04-20T13:16:43.703Z,95892.72
2023-04-20T13:19:11.516Z,95901.13
2023-04-20T13:21:40.593Z,95903.78
2023-04-20T13:24:08.782Z,95902.09
2023-04-20T13:26:37.132Z,95918.53
2023-04-20T13:29:05.176Z,95911.25
2023-04-20T13:31:33.002Z,95907.59
2023-04-20T13:34:00.837Z,95910.03
2023-04-20T13:36:29.402Z,95914.44
2023-04-20T13:38:58.618Z,95910.75
2023-04-20T13:41:26.416Z,95923.94
2023-04-20T13:43:54.128Z,95912.25
2023-04-20T13:46:22.018Z,95909.16
2023-04-20T13:48:49.861Z,95911.69
2023-04-20T13:51:17.610Z,95906.56
2023-04-20T13:53:45.436Z,95904.47
2023-04-20T13:56:14.586Z,95898.09
2023-04-20T13:58:42.295Z,95895.56
2023-04-20T14:01:10.408Z,95898.94
2023-04-20T14:03:38.404Z,95900.00
2023-04-20T14:06:06.872Z,95892.81
2023-04-20T14:08:34.599Z,95900.34
2023-04-20T14:11:02.707Z,95892.59
2023-04-20T14:13:32.045Z,95891.78
2023-04-20T14:15:59.843Z,95882.31
2023-04-20T14:18:27.603Z,95878.72
2023-04-20T14:20:55.477Z,95874.44
2023-04-20T14:23:23.173Z,95874.56
2023-04-20T14:25:51.005Z,95877.09
2023-04-20T14:28:18.820Z,95880.88
2023-04-20T14:30:47.932Z,95872.31
2023-04-20T14:33:15.677Z,95877.06
2023-04-20T14:35:43.895Z,95885.06
2023-04-20T14:38:11.651Z,95895.59
2023-04-20T14:40:39.883Z,95885.31
2023-04-20T14:43:07.702Z,95910.78
2023-04-20T14:45:35.513Z,95910.56
2023-04-20T14:48:05.890Z,95919.41
2023-04-20T14:50:33.660Z,95912.56
2023-04-20T14:53:01.423Z,95923.44
2023-04-20T14:55:29.491Z,95918.66
2023-04-20T14:57:58.787Z,95933.56
2023-04-20T15:00:28.628Z,95939.13
2023-04-20T15:02:57.448Z,95935.66
2023-04-20T15:05:28.088Z,95922.91
2023-04-20T15:07:55.997Z,95931.81
2023-04-20T15:10:24.214Z,95938.63
2023-04-20T15:12:52.208Z,95935.25
2023-04-20T15:15:20.155Z,95923.44
2023-04-20T15:17:48.183Z,95925.41
2023-04-20T15:20:16.515Z,95917.31
2023-04-20T15:22:45.831Z,95910.34
2023-04-20T15:25:13.679Z,95925.06
2023-04-20T15:27:41.517Z,95933.94
2023-04-20T15:30:10.288Z,95938.00
2023-04-20T15:32:38.140Z,95922.25
2023-04-20T15:35:06.798Z,95923.44
2023-04-20T15:37:34.544Z,95941.78
2023-04-20T15:40:04.475Z,95939.50
2023-04-20T15:42:32.374Z,95930.84
2023-04-20T15:45:00.451Z,95925.41
2023-04-20T15:47:28.253Z,95911.75
2023-04-20T15:50:01.280Z,95920.41
2023-04-20T15:52:30.933Z,95939.31
2023-04-20T15:54:58.644Z,95935.25
2023-04-20T15:57:27.849Z,95946.03
2023-04-20T15:59:55.725Z,95951.00
2023-04-20T16:02:23.846Z,95960.81
2023-04-20T16:04:52.063Z,95962.22
2023-04-20T16:07:19.952Z,95964.59
2023-04-20T16:09:48.197Z,95940.78
2023-04-20T16:12:16.045Z,95958.22
2023-04-20T16:14:45.380Z,95956.72
2023-04-20T16:17:13.195Z,95960.44
2023-04-20T16:19:41.516Z,95973.91
2023-04-20T16:22:09.272Z,95976.63
2023-04-20T16:24:37.074Z,95977.13
2023-04-20T16:27:05.006Z,95984.69
2023-04-20T16:29:32.801Z,95980.56
2023-04-20T16:32:01.872Z,95980.72
2023-04-20T16:34:30.853Z,95974.25
2023-04-20T16:36:58.647Z,95971.16
2023-04-20T16:39:26.444Z,95965.75
2023-04-20T16:41:54.193Z,95984.34
2023-04-20T16:44:22.051Z,95981.81
2023-04-20T16:46:51.050Z,95971.25
2023-04-20T16:49:20.345Z,95989.66
2023-04-20T16:51:48.552Z,95983.59
2023-04-20T16:54:16.733Z,95990.78
2023-04-20T16:56:44.715Z,95979.50
2023-04-20T16:59:12.535Z,95982.94
2023-04-20T17:01:40.401Z,95939.59
2023-04-20T17:04:08.326Z,95975.00
2023-04-20T17:06:37.752Z,95973.25
2023-04-20T17:09:07.116Z,95964.13
2023-04-20T17:11:36.048Z,95979.31
2023-04-20T17:14:04.214Z,95972.56
2023-04-20T17:16:32.049Z,95969.38
2023-04-20T17:18:59.849Z,95988.41
2023-04-20T17:21:28.922Z,95980.84
2023-04-20T17:23:58.116Z,95993.72
2023-04-20T17:26:25.839Z,96004.16
2023-04-20T17:28:53.659Z,96004.25
2023-04-20T17:31:21.476Z,95998.13
2023-04-20T17:33:49.216Z,96002.69
2023-04-20T17:36:17.101Z,95998.78
2023-04-20T17:38:45.065Z,96001.56
2023-04-20T17:41:14.180Z,96003.25
2023-04-20T17:43:41.904Z,96012.28
2023-04-20T17:46:09.681Z,96002.47
2023-04-20T17:48:37.756Z,96010.59
2023-04-20T17:51:05.570Z,96015.19
2023-04-20T17:53:33.386Z,96003.59
2023-04-20T17:56:01.300Z,96007.47
2023-04-20T17:58:30.367Z,96011.97
2023-04-20T18:01:09.007Z,96013.44
2023-04-20T18:03:37.000Z,96011.47
2023-04-20T18:06:05.473Z,96024.97
2023-04-20T18:08:34.477Z,96014.41
2023-04-20T18:11:03.084Z,96021.75
2023-04-20T18:13:32.139Z,96027.13
2023-04-20T18:16:01.564Z,96034.78
2023-04-20T18:18:29.289Z,96025.97
2023-04-20T18:20:56.996Z,96021.22
2023-04-20T18:23:24.807Z,96027.09
2023-04-20T18:25:53.708Z,96036.38
2023-04-20T18:28:21.618Z,96037.41
2023-04-20T18:30:50.957Z,96049.03
2023-04-20T18:33:19.029Z,96051.56
2023-04-20T18:35:47.171Z,96049.47
2023-04-20T18:38:15.806Z,96043.13
2023-04-20T18:40:43.763Z,96047.75
2023-04-20T18:43:11.492Z,96058.66
2023-04-20T18:45:39.340Z,96046.91
2023-04-20T18:48:08.531Z,96055.88
2023-04-20T18:50:36.281Z,96053.03
2023-04-20T18:53:05.066Z,96052.31
2023-04-20T18:55:33.105Z,96053.25
2023-04-20T18:58:01.148Z,96054.59
2023-04-20T19:00:28.873Z,96058.25
2023-04-20T19:02:56.835Z,96067.22
2023-04-20T19:05:26.404Z,96065.22
2023-04-20T19:07:54.396Z,96072.56
2023-04-20T19:10:22.128Z,96068.56
2023-04-20T19:12:49.846Z,96063.16
2023-04-20T19:15:22.569Z,96065.06
2023-04-20T19:17:50.335Z,96064.75
2023-04-20T19:20:18.413Z,96076.06
2023-04-20T19:22:47.552Z,96080.78
2023-04-20T19:25:15.411Z,96063.88
2023-04-20T19:27:43.214Z,96063.69
2023-04-20T19:30:11.523Z,96065.13
2023-04-20T19:32:39.684Z,96055.81
2023-04-20T19:35:07.810Z,96056.63
2023-04-20T19:37:35.703Z,96067.84
2023-04-20T19:40:06.282Z,96060.72
2023-04-20T19:42:35.260Z,96056.84
2023-04-20T19:45:03.446Z,96064.03
2023-04-20T19:47:31.147Z,96060.66
2023-04-20T19:49:59.171Z,96075.31
2023-04-20T19:52:27.636Z,96068.38
2023-04-20T19:54:55.360Z,96072.22
2023-04-20T19:57:24.557Z,96071.78
2023-04-20T19:59:52.502Z,96064.66
2023-04-20T20:02:20.341Z,96059.19
2023-04-20T20:04:49.939Z,96061.28
2023-04-20T20:07:18.158Z,96058.84
2023-04-20T20:09:46.168Z,96051.50
2023-04-20T20:12:14.118Z,96048.47
2023-04-20T20:14:43.212Z,96041.75
2023-04-20T20:17:11.217Z,96046.84
2023-04-20T20:19:40.336Z,96051.50
2023-04-20T20:22:08.079Z,96047.63
2023-04-20T20:24:36.069Z,96058.84
2023-04-20T20:27:03.896Z,96054.59
2023-04-20T20:29:32.194Z,96062.91
2023-04-20T20:32:01.333Z,96055.19
2023-04-20T20:34:29.098Z,96052.53
2023-04-20T20:36:56.953Z,96052.53
2023-04-20T20:39:24.658Z,96055.19
2023-04-20T20:41:52.398Z,96058.22
2023-04-20T20:44:20.768Z,96053.75
2023-04-20T20:46:48.680Z,96055.78
2023-04-20T20:49:18.031Z,96048.84
2023-04-20T20:51:46.572Z,96054.97
2023-04-20T20:54:14.363Z,96040.94
2023-04-20T20:56:43.579Z,96041.34
2023-04-20T20:59:11.678Z,96037.47
2023-04-20T21:01:39.526Z,96038.28
2023-04-20T21:04:07.671Z,96037.69
2023-04-20T21:06:36.981Z,96042.56
2023-04-20T21:09:05.162Z,96048.06
2023-04-20T21:11:32.910Z,96046.03
2023-04-20T21:14:01.772Z,96043.78
2023-04-20T21:16:29.968Z,96048.25
2023-04-20T21:18:57.706Z,96045.63
2023-04-20T21:21:25.550Z,96049.28
2023-04-20T21:23:54.776Z,96048.03
2023-04-20T21:26:22.504Z,96055.78
2023-04-20T21:28:50.238Z,96037.03
2023-04-20T21:31:17.933Z,96051.69
2023-04-20T21:33:45.954Z,96061.91
2023-04-20T21:36:13.731Z,96045.19
2023-04-20T21:38:41.474Z,96066.97
2023-04-20T21:41:10.615Z,96079.59
2023-04-20T21:43:38.693Z,96068.84
2023-04-20T21:46:06.598Z,96066.38
2023-04-20T21:48:34.272Z,96068.00
2023-04-20T21:51:01.961Z,96069.03
2023-04-20T21:53:29.641Z,96067.19
2023-04-20T21:55:57.669Z,96063.94
2023-04-20T21:58:26.779Z,96060.88
2023-04-20T22:00:54.559Z,96056.59
2023-04-20T22:03:22.511Z,96066.97
2023-04-20T22:05:50.539Z,96058.44
2023-04-20T22:08:21.943Z,96054.16
2023-04-20T22:10:50.488Z,96044.19
2023-04-20T22:13:18.598Z,96051.72
2023-04-20T22:15:48.976Z,96053.38
2023-04-20T22:18:18.882Z,96048.47
2023-04-20T22:20:46.807Z,96049.47
2023-04-20T22:23:14.524Z,96045.22
2023-04-20T22:25:42.805Z,96043.16
2023-04-20T22:28:11.274Z,96051.50
2023-04-20T22:30:39.001Z,96041.34
2023-04-20T22:33:08.204Z,96059.84
2023-04-20T22:35:36.043Z,96079.78
2023-04-20T22:38:03.812Z,96082.03
2023-04-20T22:40:31.846Z,96077.75
2023-04-20T22:42:59.607Z,96083.84
2023-04-20T22:45:27.349Z,96082.59
2023-04-20T22:47:55.170Z,96078.53
2023-04-20T22:50:24.624Z,96076.09
2023-04-20T22:52:52.536Z,96072.66
2023-04-20T22:55:20.924Z,96081.44
2023-04-20T22:57:51.589Z,96068.16
2023-04-20T23:00:19.607Z,96067.56
2023-04-20T23:02:47.608Z,96068.41
2023-04-20T23:05:20.122Z,96067.97
2023-04-20T23:07:49.451Z,96073.25
2023-04-20T23:10:17.169Z,96070.59
2023-04-20T23:12:46.822Z,96072.84
2023-04-20T23:15:14.801Z,96069.00
2023-04-20T23:17:42.633Z,96065.97
2023-04-20T23:20:13.435Z,96061.91
2023-04-20T23:22:41.451Z,96055.78
2023-04-20T23:25:11.327Z,96061.91
2023-04-20T23:27:39.378Z,96068.41
2023-04-20T23:30:08.757Z,96057.44
2023-04-20T23:32:37.856Z,96053.34
2023-04-20T23:35:06.521Z,96049.25
2023-04-20T23:37:34.332Z,96051.69
2023-04-20T23:40:02.246Z,96058.19
2023-04-20T23:42:31.316Z,96050.88
2023-04-20T23:44:59.494Z,96037.59
2023-04-20T23:47:27.257Z,96000.38
2023-04-20T23:49:54.949Z,96029.91
2023-04-20T23:52:23.181Z,96036.41
2023-04-20T23:54:50.909Z,96039.22
2023-04-20T23:57:18.789Z,96040.06
2023-04-20T23:59:47.952Z,96031.09
